sensor_id;sensor_type;location;lat;lon;timestamp;pressure;altitude;pressure_sealevel;temperature;humidity
68988;BME280;56038;46.080;11.116;2023-08-06T00:02:24;98364.66;;;18.95;100.00
68988;BME280;56038;46.080;11.116;2023-08-06T00:07:26;98355.59;;;18.98;100.00
68988;BME280;56038;46.080;11.116;2023-08-06T00:17:46;98343.50;;;18.95;100.00
68988;BME280;56038;46.080;11.116;2023-08-06T00:22:47;98339.72;;;18.88;100.00
68988;BME280;56038;46.080;11.116;2023-08-06T00:27:49;98350.38;;;18.58;100.00
68988;BME280;56038;46.080;11.116;2023-08-06T00:32:52;98359.69;;;18.52;100.00
68988;BME280;56038;46.080;11.116;2023-08-06T00:37:54;98351.56;;;18.65;100.00
68988;BME280;56038;46.080;11.116;2023-08-06T00:42:56;98348.63;;;18.68;100.00
68988;BME280;56038;46.080;11.116;2023-08-06T00:47:59;98342.50;;;18.67;100.00
68988;BME280;56038;46.080;11.116;2023-08-06T00:53:02;98329.09;;;18.49;100.00
68988;BME280;56038;46.080;11.116;2023-08-06T00:58:04;98323.91;;;18.38;100.00
68988;BME280;56038;46.080;11.116;2023-08-06T01:03:07;98313.50;;;18.46;100.00
68988;BME280;56038;46.080;11.116;2023-08-06T01:08:19;98319.34;;;18.50;100.00
68988;BME280;56038;46.080;11.116;2023-08-06T01:13:26;98323.22;;;18.55;100.00
68988;BME280;56038;46.080;11.116;2023-08-06T01:18:33;98311.97;;;18.53;100.00
68988;BME280;56038;46.080;11.116;2023-08-06T01:23:39;98306.66;;;18.53;100.00
68988;BME280;56038;46.080;11.116;2023-08-06T01:28:48;98296.50;;;18.49;100.00
68988;BME280;56038;46.080;11.116;2023-08-06T01:33:53;98306.78;;;18.42;100.00
68988;BME280;56038;46.080;11.116;2023-08-06T01:38:58;98294.97;;;18.46;100.00
68988;BME280;56038;46.080;11.116;2023-08-06T01:44:00;98300.28;;;18.46;100.00
68988;BME280;56038;46.080;11.116;2023-08-06T01:49:02;98298.03;;;18.42;100.00
68988;BME280;56038;46.080;11.116;2023-08-06T01:54:05;98307.75;;;18.41;100.00
68988;BME280;56038;46.080;11.116;2023-08-06T01:59:07;98304.84;;;18.44;100.00
68988;BME280;56038;46.080;11.116;2023-08-06T02:04:09;98306.78;;;18.42;100.00
68988;BME280;56038;46.080;11.116;2023-08-06T02:09:12;98290.22;;;18.40;100.00
68988;BME280;56038;46.080;11.116;2023-08-06T02:14:14;98288.84;;;18.36;100.00
68988;BME280;56038;46.080;11.116;2023-08-06T02:19:15;98292.47;;;18.35;100.00
68988;BME280;56038;46.080;11.116;2023-08-06T02:24:19;98291.19;;;18.30;100.00
68988;BME280;56038;46.080;11.116;2023-08-06T02:29:20;98296.19;;;18.23;100.00
68988;BME280;56038;46.080;11.116;2023-08-06T02:34:22;98302.84;;;18.17;100.00
68988;BME280;56038;46.080;11.116;2023-08-06T02:39:25;98312.13;;;18.12;100.00
68988;BME280;56038;46.080;11.116;2023-08-06T02:44:27;98305.00;;;17.93;100.00
68988;BME280;56038;46.080;11.116;2023-08-06T02:49:29;98305.44;;;17.67;100.00
68988;BME280;56038;46.080;11.116;2023-08-06T02:54:32;98298.84;;;17.62;100.00
68988;BME280;56038;46.080;11.116;2023-08-06T02:59:34;98285.09;;;17.58;100.00
68988;BME280;56038;46.080;11.116;2023-08-06T03:04:36;98277.44;;;17.55;100.00
68988;BME280;56038;46.080;11.116;2023-08-06T03:09:39;98269.66;;;17.54;100.00
68988;BME280;56038;46.080;11.116;2023-08-06T03:14:41;98267.56;;;17.57;100.00
68988;BME280;56038;46.080;11.116;2023-08-06T03:19:42;98266.19;;;17.53;100.00
68988;BME280;56038;46.080;11.116;2023-08-06T03:24:46;98256.53;;;17.43;100.00
68988;BME280;56038;46.080;11.116;2023-08-06T03:29:48;98250.41;;;17.42;100.00
68988;BME280;56038;46.080;11.116;2023-08-06T03:34:50;98253.59;;;17.36;100.00
68988;BME280;56038;46.080;11.116;2023-08-06T03:39:53;98249.66;;;17.30;100.00
68988;BME280;56038;46.080;11.116;2023-08-06T03:44:55;98236.28;;;17.22;100.00
68988;BME280;56038;46.080;11.116;2023-08-06T03:49:57;98247.09;;;17.19;100.00
68988;BME280;56038;46.080;11.116;2023-08-06T03:55:00;98254.69;;;17.13;100.00
68988;BME280;56038;46.080;11.116;2023-08-06T04:00:02;98257.03;;;17.06;100.00
68988;BME280;56038;46.080;11.116;2023-08-06T04:05:05;98254.53;;;17.04;100.00
68988;BME280;56038;46.080;11.116;2023-08-06T04:10:09;98246.28;;;16.98;100.00
68988;BME280;56038;46.080;11.116;2023-08-06T04:15:11;98252.38;;;16.98;100.00
68988;BME280;56038;46.080;11.116;2023-08-06T04:20:13;98259.72;;;16.95;100.00
68988;BME280;56038;46.080;11.116;2023-08-06T04:25:16;98251.47;;;16.88;100.00
68988;BME280;56038;46.080;11.116;2023-08-06T04:30:21;98252.84;;;16.83;100.00
68988;BME280;56038;46.080;11.116;2023-08-06T04:35:23;98257.13;;;16.84;100.00
68988;BME280;56038;46.080;11.116;2023-08-06T04:40:26;98254.50;;;16.84;100.00
68988;BME280;56038;46.080;11.116;2023-08-06T04:45:28;98260.25;;;16.89;100.00
68988;BME280;56038;46.080;11.116;2023-08-06T04:50:29;98256.88;;;16.87;100.00
68988;BME280;56038;46.080;11.116;2023-08-06T04:55:34;98255.59;;;16.81;100.00
68988;BME280;56038;46.080;11.116;2023-08-06T05:00:36;98250.44;;;16.80;100.00
68988;BME280;56038;46.080;11.116;2023-08-06T05:05:40;98255.78;;;16.68;100.00
68988;BME280;56038;46.080;11.116;2023-08-06T05:10:43;98268.34;;;16.65;100.00
68988;BME280;56038;46.080;11.116;2023-08-06T05:15:45;98263.38;;;16.83;100.00
68988;BME280;56038;46.080;11.116;2023-08-06T05:20:47;98273.09;;;17.03;100.00
68988;BME280;56038;46.080;11.116;2023-08-06T05:25:50;98269.16;;;17.18;100.00
68988;BME280;56038;46.080;11.116;2023-08-06T05:30:52;98267.44;;;17.28;100.00
68988;BME280;56038;46.080;11.116;2023-08-06T05:35:54;98267.50;;;17.48;100.00
68988;BME280;56038;46.080;11.116;2023-08-06T05:40:57;98269.53;;;17.65;100.00
68988;BME280;56038;46.080;11.116;2023-08-06T05:45:59;98268.94;;;17.82;100.00
68988;BME280;56038;46.080;11.116;2023-08-06T05:51:00;98267.72;;;17.96;100.00
68988;BME280;56038;46.080;11.116;2023-08-06T05:56:04;98262.19;;;18.09;100.00
68988;BME280;56038;46.080;11.116;2023-08-06T06:01:05;98260.44;;;18.19;100.00
68988;BME280;56038;46.080;11.116;2023-08-06T06:06:07;98261.16;;;18.31;100.00
68988;BME280;56038;46.080;11.116;2023-08-06T06:11:10;98258.06;;;18.45;100.00
68988;BME280;56038;46.080;11.116;2023-08-06T06:16:12;98265.75;;;18.58;100.00
68988;BME280;56038;46.080;11.116;2023-08-06T06:21:13;98248.25;;;18.66;100.00
68988;BME280;56038;46.080;11.116;2023-08-06T06:26:17;98257.81;;;18.77;100.00
68988;BME280;56038;46.080;11.116;2023-08-06T06:31:18;98258.94;;;18.84;100.00
68988;BME280;56038;46.080;11.116;2023-08-06T06:36:20;98256.41;;;18.92;100.00
68988;BME280;56038;46.080;11.116;2023-08-06T06:41:23;98260.19;;;18.99;100.00
68988;BME280;56038;46.080;11.116;2023-08-06T06:46:26;98263.94;;;19.72;100.00
68988;BME280;56038;46.080;11.116;2023-08-06T06:51:28;98265.31;;;20.04;100.00
68988;BME280;56038;46.080;11.116;2023-08-06T06:56:33;98260.53;;;20.08;100.00
68988;BME280;56038;46.080;11.116;2023-08-06T07:01:35;98265.53;;;20.56;100.00
68988;BME280;56038;46.080;11.116;2023-08-06T07:06:37;98266.06;;;20.77;100.00
68988;BME280;56038;46.080;11.116;2023-08-06T07:11:40;98262.19;;;20.89;100.00
68988;BME280;56038;46.080;11.116;2023-08-06T07:16:43;98244.28;;;20.91;100.00
68988;BME280;56038;46.080;11.116;2023-08-06T07:21:45;98238.72;;;21.03;100.00
68988;BME280;56038;46.080;11.116;2023-08-06T07:26:48;98230.84;;;21.45;100.00
68988;BME280;56038;46.080;11.116;2023-08-06T07:31:50;98231.50;;;21.73;98.29
68988;BME280;56038;46.080;11.116;2023-08-06T07:36:52;98225.03;;;21.75;96.10
68988;BME280;56038;46.080;11.116;2023-08-06T07:41:55;98224.88;;;21.77;95.75
68988;BME280;56038;46.080;11.116;2023-08-06T07:46:57;98203.81;;;21.83;94.64
68988;BME280;56038;46.080;11.116;2023-08-06T07:51:58;98212.72;;;22.17;93.96
68988;BME280;56038;46.080;11.116;2023-08-06T07:57:02;98211.75;;;22.26;92.43
68988;BME280;56038;46.080;11.116;2023-08-06T08:02:04;98221.06;;;22.38;92.41
68988;BME280;56038;46.080;11.116;2023-08-06T08:07:06;98214.09;;;22.45;90.57
68988;BME280;56038;46.080;11.116;2023-08-06T08:12:09;98204.78;;;22.49;90.54
68988;BME280;56038;46.080;11.116;2023-08-06T08:17:11;98203.81;;;22.75;90.48
68988;BME280;56038;46.080;11.116;2023-08-06T08:22:13;98208.97;;;22.92;88.97
68988;BME280;56038;46.080;11.116;2023-08-06T08:27:16;98203.84;;;22.91;87.88
68988;BME280;56038;46.080;11.116;2023-08-06T08:32:18;98204.28;;;23.11;87.13
68988;BME280;56038;46.080;11.116;2023-08-06T08:37:20;98193.19;;;23.46;86.59
68988;BME280;56038;46.080;11.116;2023-08-06T08:42:23;98197.66;;;23.62;83.95
68988;BME280;56038;46.080;11.116;2023-08-06T08:47:25;98184.25;;;23.86;84.57
68988;BME280;56038;46.080;11.116;2023-08-06T08:52:27;98171.91;;;24.16;83.74
68988;BME280;56038;46.080;11.116;2023-08-06T08:57:32;98171.41;;;24.13;80.07
68988;BME280;56038;46.080;11.116;2023-08-06T09:02:33;98166.59;;;24.08;77.36
68988;BME280;56038;46.080;11.116;2023-08-06T09:07:39;98157.84;;;24.23;73.77
68988;BME280;56038;46.080;11.116;2023-08-06T09:12:44;98169.53;;;24.44;74.14
68988;BME280;56038;46.080;11.116;2023-08-06T09:17:46;98165.13;;;24.74;73.82
68988;BME280;56038;46.080;11.116;2023-08-06T09:22:48;98163.06;;;24.99;72.23
68988;BME280;56038;46.080;11.116;2023-08-06T09:27:52;98157.38;;;25.32;66.31
68988;BME280;56038;46.080;11.116;2023-08-06T09:32:53;98159.59;;;25.43;63.27
68988;BME280;56038;46.080;11.116;2023-08-06T09:37:55;98146.47;;;25.78;60.72
68988;BME280;56038;46.080;11.116;2023-08-06T09:42:59;98156.53;;;26.12;57.41
68988;BME280;56038;46.080;11.116;2023-08-06T09:48:03;98151.31;;;26.68;56.11
68988;BME280;56038;46.080;11.116;2023-08-06T09:53:06;98150.97;;;26.77;51.29
68988;BME280;56038;46.080;11.116;2023-08-06T09:58:09;98138.41;;;27.40;51.52
68988;BME280;56038;46.080;11.116;2023-08-06T10:03:11;98134.50;;;27.84;49.39
68988;BME280;56038;46.080;11.116;2023-08-06T10:08:14;98120.72;;;28.00;46.47
68988;BME280;56038;46.080;11.116;2023-08-06T10:13:21;98127.44;;;28.44;43.51
68988;BME280;56038;46.080;11.116;2023-08-06T10:18:24;98118.56;;;28.90;44.54
68988;BME280;56038;46.080;11.116;2023-08-06T10:23:33;98121.00;;;28.85;35.05
68988;BME280;56038;46.080;11.116;2023-08-06T10:28:38;98109.94;;;29.33;39.93
68988;BME280;56038;46.080;11.116;2023-08-06T10:33:41;98112.81;;;29.44;39.56
68988;BME280;56038;46.080;11.116;2023-08-06T10:38:45;98115.09;;;29.54;37.38
68988;BME280;56038;46.080;11.116;2023-08-06T10:43:49;98109.06;;;29.97;35.30
68988;BME280;56038;46.080;11.116;2023-08-06T10:48:51;98109.44;;;30.38;35.61
68988;BME280;56038;46.080;11.116;2023-08-06T10:53:54;98107.44;;;30.27;35.66
68988;BME280;56038;46.080;11.116;2023-08-06T10:58:57;98108.97;;;29.78;33.61
68988;BME280;56038;46.080;11.116;2023-08-06T11:04:02;98096.47;;;29.91;31.72
68988;BME280;56038;46.080;11.116;2023-08-06T11:09:05;98092.72;;;30.55;32.61
68988;BME280;56038;46.080;11.116;2023-08-06T11:14:15;98085.56;;;30.17;25.01
68988;BME280;56038;46.080;11.116;2023-08-06T11:19:17;98086.50;;;30.29;31.81
68988;BME280;56038;46.080;11.116;2023-08-06T11:24:18;98070.84;;;31.31;30.19
68988;BME280;56038;46.080;11.116;2023-08-06T11:29:22;98056.06;;;31.34;29.35
68988;BME280;56038;46.080;11.116;2023-08-06T11:34:24;98064.50;;;30.57;30.52
68988;BME280;56038;46.080;11.116;2023-08-06T11:39:26;98071.91;;;30.12;31.27
68988;BME280;56038;46.080;11.116;2023-08-06T11:44:32;98068.84;;;30.65;28.28
68988;BME280;56038;46.080;11.116;2023-08-06T11:49:42;98072.31;;;31.09;23.17
68988;BME280;56038;46.080;11.116;2023-08-06T11:54:46;98066.53;;;30.12;29.12
68988;BME280;56038;46.080;11.116;2023-08-06T11:59:50;98062.41;;;30.09;27.42
68988;BME280;56038;46.080;11.116;2023-08-06T12:05:02;98061.22;;;29.99;23.90
68988;BME280;56038;46.080;11.116;2023-08-06T12:10:05;98063.34;;;29.52;28.83
68988;BME280;56038;46.080;11.116;2023-08-06T12:15:09;98071.97;;;29.09;29.50
68988;BME280;56038;46.080;11.116;2023-08-06T12:20:12;98070.13;;;28.97;30.62
68988;BME280;56038;46.080;11.116;2023-08-06T12:25:13;98063.78;;;28.58;30.39
68988;BME280;56038;46.080;11.116;2023-08-06T12:30:17;98066.50;;;29.29;30.28
68988;BME280;56038;46.080;11.116;2023-08-06T12:35:18;98072.94;;;30.11;29.32
68988;BME280;56038;46.080;11.116;2023-08-06T12:40:21;98074.50;;;31.18;27.39
68988;BME280;56038;46.080;11.116;2023-08-06T12:45:24;98077.00;;;31.68;25.07
68988;BME280;56038;46.080;11.116;2023-08-06T12:50:26;98083.88;;;32.54;25.91
68988;BME280;56038;46.080;11.116;2023-08-06T12:55:28;98082.59;;;32.92;25.59
68988;BME280;56038;46.080;11.116;2023-08-06T13:00:31;98078.03;;;33.04;25.13
68988;BME280;56038;46.080;11.116;2023-08-06T13:05:33;98086.44;;;32.49;25.04
68988;BME280;56038;46.080;11.116;2023-08-06T13:10:35;98095.88;;;32.70;25.63
68988;BME280;56038;46.080;11.116;2023-08-06T13:15:38;98111.84;;;31.58;26.57
68988;BME280;56038;46.080;11.116;2023-08-06T13:20:40;98107.25;;;30.54;27.41
68988;BME280;56038;46.080;11.116;2023-08-06T13:25:42;98115.53;;;29.89;28.79
68988;BME280;56038;46.080;11.116;2023-08-06T13:30:45;98127.72;;;29.47;28.73
68988;BME280;56038;46.080;11.116;2023-08-06T13:35:47;98138.59;;;28.87;29.20
68988;BME280;56038;46.080;11.116;2023-08-06T13:40:49;98134.56;;;28.04;29.90
68988;BME280;56038;46.080;11.116;2023-08-06T13:45:53;98158.03;;;27.89;30.98
68988;BME280;56038;46.080;11.116;2023-08-06T13:50:54;98175.72;;;27.70;31.43
68988;BME280;56038;46.080;11.116;2023-08-06T13:55:56;98167.09;;;27.05;31.39
68988;BME280;56038;46.080;11.116;2023-08-06T14:00:59;98161.06;;;27.31;30.81
68988;BME280;56038;46.080;11.116;2023-08-06T14:06:01;98148.50;;;27.73;30.50
68988;BME280;56038;46.080;11.116;2023-08-06T14:11:03;98166.28;;;28.81;29.14
68988;BME280;56038;46.080;11.116;2023-08-06T14:16:06;98143.91;;;29.92;28.43
68988;BME280;56038;46.080;11.116;2023-08-06T14:21:08;98151.13;;;30.61;27.12
68988;BME280;56038;46.080;11.116;2023-08-06T14:26:10;98140.91;;;31.38;27.21
68988;BME280;56038;46.080;11.116;2023-08-06T14:31:13;98153.75;;;31.79;27.11
68988;BME280;56038;46.080;11.116;2023-08-06T14:36:15;98145.97;;;32.01;26.86
68988;BME280;56038;46.080;11.116;2023-08-06T14:41:16;98146.22;;;31.99;27.42
68988;BME280;56038;46.080;11.116;2023-08-06T14:46:19;98149.47;;;31.90;28.16
68988;BME280;56038;46.080;11.116;2023-08-06T14:51:21;98146.38;;;32.04;28.74
68988;BME280;56038;46.080;11.116;2023-08-06T14:56:23;98142.28;;;31.47;29.48
68988;BME280;56038;46.080;11.116;2023-08-06T15:01:26;98148.50;;;31.47;29.18
68988;BME280;56038;46.080;11.116;2023-08-06T15:06:28;98147.22;;;31.68;29.76
68988;BME280;56038;46.080;11.116;2023-08-06T15:11:30;98157.56;;;31.35;30.88
68988;BME280;56038;46.080;11.116;2023-08-06T15:16:33;98167.09;;;31.37;29.56
68988;BME280;56038;46.080;11.116;2023-08-06T15:21:34;98181.31;;;31.01;31.16
68988;BME280;56038;46.080;11.116;2023-08-06T15:26:36;98181.50;;;30.81;31.55
68988;BME280;56038;46.080;11.116;2023-08-06T15:31:39;98192.31;;;30.75;30.87
68988;BME280;56038;46.080;11.116;2023-08-06T15:36:41;98199.78;;;30.48;30.93
68988;BME280;56038;46.080;11.116;2023-08-06T15:41:43;98206.03;;;28.92;33.90
68988;BME280;56038;46.080;11.116;2023-08-06T15:46:46;98216.06;;;27.90;36.33
68988;BME280;56038;46.080;11.116;2023-08-06T15:51:48;98225.06;;;26.27;38.39
68988;BME280;56038;46.080;11.116;2023-08-06T15:56:50;98234.91;;;25.61;38.97
68988;BME280;56038;46.080;11.116;2023-08-06T16:01:53;98224.03;;;25.48;38.72
68988;BME280;56038;46.080;11.116;2023-08-06T16:06:55;98236.19;;;25.36;38.52
68988;BME280;56038;46.080;11.116;2023-08-06T16:11:59;98240.09;;;25.48;38.71
68988;BME280;56038;46.080;11.116;2023-08-06T16:17:03;98248.72;;;25.21;39.44
68988;BME280;56038;46.080;11.116;2023-08-06T16:22:05;98255.63;;;25.15;40.04
68988;BME280;56038;46.080;11.116;2023-08-06T16:27:06;98258.56;;;25.20;40.86
68988;BME280;56038;46.080;11.116;2023-08-06T16:32:09;98260.22;;;25.21;40.87
68988;BME280;56038;46.080;11.116;2023-08-06T16:37:12;98271.00;;;24.90;42.99
68988;BME280;56038;46.080;11.116;2023-08-06T16:42:14;98266.66;;;24.43;43.79
68988;BME280;56038;46.080;11.116;2023-08-06T16:47:17;98269.03;;;24.38;44.55
68988;BME280;56038;46.080;11.116;2023-08-06T16:52:18;98262.97;;;24.44;45.02
68988;BME280;56038;46.080;11.116;2023-08-06T16:57:20;98268.66;;;24.41;45.15
68988;BME280;56038;46.080;11.116;2023-08-06T17:02:23;98266.19;;;24.01;47.48
68988;BME280;56038;46.080;11.116;2023-08-06T17:07:25;98278.31;;;23.72;48.59
68988;BME280;56038;46.080;11.116;2023-08-06T17:12:27;98291.81;;;23.71;48.74
68988;BME280;56038;46.080;11.116;2023-08-06T17:17:30;98302.81;;;23.68;49.48
68988;BME280;56038;46.080;11.116;2023-08-06T17:22:32;98307.94;;;23.77;49.05
68988;BME280;56038;46.080;11.116;2023-08-06T17:27:34;98313.28;;;23.77;48.86
68988;BME280;56038;46.080;11.116;2023-08-06T17:32:37;98310.47;;;23.46;50.62
68988;BME280;56038;46.080;11.116;2023-08-06T17:37:46;98322.63;;;23.49;50.61
68988;BME280;56038;46.080;11.116;2023-08-06T17:42:47;98336.66;;;23.26;51.95
68988;BME280;56038;46.080;11.116;2023-08-06T17:47:51;98337.97;;;23.14;53.10
68988;BME280;56038;46.080;11.116;2023-08-06T17:52:52;98341.78;;;23.04;53.28
68988;BME280;56038;46.080;11.116;2023-08-06T17:57:54;98350.59;;;22.88;54.37
68988;BME280;56038;46.080;11.116;2023-08-06T18:02:57;98350.72;;;22.70;55.64
68988;BME280;56038;46.080;11.116;2023-08-06T18:07:59;98358.53;;;22.63;55.83
68988;BME280;56038;46.080;11.116;2023-08-06T18:13:01;98371.97;;;22.46;59.05
68988;BME280;56038;46.080;11.116;2023-08-06T18:18:04;98378.78;;;22.48;57.15
68988;BME280;56038;46.080;11.116;2023-08-06T18:23:06;98388.09;;;22.44;57.57
68988;BME280;56038;46.080;11.116;2023-08-06T18:28:07;98394.34;;;22.35;58.03
68988;BME280;56038;46.080;11.116;2023-08-06T18:33:10;98399.28;;;22.22;59.29
68988;BME280;56038;46.080;11.116;2023-08-06T18:38:12;98397.75;;;21.93;62.00
68988;BME280;56038;46.080;11.116;2023-08-06T18:43:14;98415.31;;;21.78;63.27
68988;BME280;56038;46.080;11.116;2023-08-06T18:48:17;98420.47;;;22.05;66.54
68988;BME280;56038;46.080;11.116;2023-08-06T18:53:19;98423.97;;;22.40;63.64
68988;BME280;56038;46.080;11.116;2023-08-06T18:58:21;98426.28;;;22.35;63.94
68988;BME280;56038;46.080;11.116;2023-08-06T19:03:24;98447.44;;;22.79;64.03
68988;BME280;56038;46.080;11.116;2023-08-06T19:08:26;98449.38;;;22.60;63.54
68988;BME280;56038;46.080;11.116;2023-08-06T19:13:28;98458.50;;;23.00;62.49
68988;BME280;56038;46.080;11.116;2023-08-06T19:18:31;98465.03;;;23.14;61.46
68988;BME280;56038;46.080;11.116;2023-08-06T19:23:33;98483.84;;;23.12;60.82
68988;BME280;56038;46.080;11.116;2023-08-06T19:28:34;98493.06;;;22.84;60.66
68988;BME280;56038;46.080;11.116;2023-08-06T19:33:37;98499.06;;;22.86;60.80
68988;BME280;56038;46.080;11.116;2023-08-06T19:38:39;98504.78;;;22.91;60.26
68988;BME280;56038;46.080;11.116;2023-08-06T19:43:41;98513.66;;;23.08;59.84
68988;BME280;56038;46.080;11.116;2023-08-06T19:48:44;98527.81;;;23.16;59.18
68988;BME280;56038;46.080;11.116;2023-08-06T19:53:46;98520.81;;;23.15;59.09
68988;BME280;56038;46.080;11.116;2023-08-06T19:58:48;98530.81;;;23.13;59.05
68988;BME280;56038;46.080;11.116;2023-08-06T20:03:51;98530.31;;;23.18;58.88
68988;BME280;56038;46.080;11.116;2023-08-06T20:08:53;98524.31;;;23.16;58.84
68988;BME280;56038;46.080;11.116;2023-08-06T20:13:55;98531.84;;;23.20;58.61
68988;BME280;56038;46.080;11.116;2023-08-06T20:18:58;98540.47;;;23.14;58.76
68988;BME280;56038;46.080;11.116;2023-08-06T20:24:00;98532.81;;;23.11;58.97
68988;BME280;56038;46.080;11.116;2023-08-06T20:29:03;98542.28;;;23.06;59.27
68988;BME280;56038;46.080;11.116;2023-08-06T20:34:07;98551.88;;;22.98;59.73
68988;BME280;56038;46.080;11.116;2023-08-06T20:39:09;98561.22;;;22.42;62.21
68988;BME280;56038;46.080;11.116;2023-08-06T20:44:10;98564.75;;;22.07;64.66
68988;BME280;56038;46.080;11.116;2023-08-06T20:49:14;98586.88;;;21.27;68.01
68988;BME280;56038;46.080;11.116;2023-08-06T20:54:15;98584.94;;;20.82;69.51
68988;BME280;56038;46.080;11.116;2023-08-06T20:59:17;98597.44;;;20.72;70.35
68988;BME280;56038;46.080;11.116;2023-08-06T21:04:20;98606.66;;;21.05;70.83
68988;BME280;56038;46.080;11.116;2023-08-06T21:09:22;98616.53;;;20.85;70.56
68988;BME280;56038;46.080;11.116;2023-08-06T21:14:24;98609.88;;;20.62;72.02
68988;BME280;56038;46.080;11.116;2023-08-06T21:19:27;98626.28;;;21.22;69.46
68988;BME280;56038;46.080;11.116;2023-08-06T21:24:28;98634.31;;;21.49;67.65
68988;BME280;56038;46.080;11.116;2023-08-06T21:29:30;98649.19;;;20.96;70.16
68988;BME280;56038;46.080;11.116;2023-08-06T21:34:33;98648.19;;;20.97;70.67
68988;BME280;56038;46.080;11.116;2023-08-06T21:39:35;98648.81;;;21.28;69.23
68988;BME280;56038;46.080;11.116;2023-08-06T21:44:37;98663.44;;;20.94;70.71
68988;BME280;56038;46.080;11.116;2023-08-06T21:49:40;98661.75;;;21.40;69.02
68988;BME280;56038;46.080;11.116;2023-08-06T21:54:41;98666.09;;;21.41;68.43
68988;BME280;56038;46.080;11.116;2023-08-06T21:59:43;98671.69;;;21.66;67.45
68988;BME280;56038;46.080;11.116;2023-08-06T22:04:46;98679.81;;;21.37;67.81
68988;BME280;56038;46.080;11.116;2023-08-06T22:09:48;98684.13;;;21.47;67.21
68988;BME280;56038;46.080;11.116;2023-08-06T22:14:49;98683.34;;;21.55;66.41
68988;BME280;56038;46.080;11.116;2023-08-06T22:19:52;98689.50;;;21.56;66.30
68988;BME280;56038;46.080;11.116;2023-08-06T22:24:54;98691.47;;;21.16;67.55
68988;BME280;56038;46.080;11.116;2023-08-06T22:29:56;98685.44;;;21.34;66.89
68988;BME280;56038;46.080;11.116;2023-08-06T22:34:59;98703.44;;;21.40;66.72
68988;BME280;56038;46.080;11.116;2023-08-06T22:40:01;98699.63;;;21.42;66.36
68988;BME280;56038;46.080;11.116;2023-08-06T22:45:04;98708.72;;;21.49;66.10
68988;BME280;56038;46.080;11.116;2023-08-06T22:50:08;98710.88;;;21.36;66.50
68988;BME280;56038;46.080;11.116;2023-08-06T22:55:10;98716.19;;;21.36;66.71
68988;BME280;56038;46.080;11.116;2023-08-06T23:00:13;98720.94;;;21.23;66.53
68988;BME280;56038;46.080;11.116;2023-08-06T23:05:16;98721.44;;;20.89;65.48
68988;BME280;56038;46.080;11.116;2023-08-06T23:10:18;98728.03;;;20.85;64.19
68988;BME280;56038;46.080;11.116;2023-08-06T23:15:22;98749.13;;;20.87;61.54
68988;BME280;56038;46.080;11.116;2023-08-06T23:26:24;98763.19;;;21.07;57.26
68988;BME280;56038;46.080;11.116;2023-08-06T23:31:31;98771.44;;;20.94;56.06
68988;BME280;56038;46.080;11.116;2023-08-06T23:36:33;98767.81;;;21.05;55.83
68988;BME280;56038;46.080;11.116;2023-08-06T23:41:36;98771.31;;;21.05;54.66
68988;BME280;56038;46.080;11.116;2023-08-06T23:46:38;98770.44;;;21.14;53.58
68988;BME280;56038;46.080;11.116;2023-08-06T23:51:40;98772.84;;;20.98;52.54
68988;BME280;56038;46.080;11.116;2023-08-06T23:56:45;98766.44;;;20.81;51.94
